sensor_id;sensor_type;location;lat;lon;timestamp;pressure;altitude;pressure_sealevel;temperature
63220;BMP180;49320;52.512;13.448;2024-03-02T00:00:06;100141.00;;;17.30
63220;BMP180;49320;52.512;13.448;2024-03-02T00:02:45;100144.00;;;17.40
63220;BMP180;49320;52.512;13.448;2024-03-02T00:05:18;100138.00;;;17.30
63220;BMP180;49320;52.512;13.448;2024-03-02T00:07:53;100148.00;;;17.40
63220;BMP180;49320;52.512;13.448;2024-03-02T00:10:25;100140.00;;;17.40
63220;BMP180;49320;52.512;13.448;2024-03-02T00:12:56;100128.00;;;17.40
63220;BMP180;49320;52.512;13.448;2024-03-02T00:15:46;100133.00;;;17.40
63220;BMP180;49320;52.512;13.448;2024-03-02T00:18:18;100139.00;;;17.40
63220;BMP180;49320;52.512;13.448;2024-03-02T00:20:45;100127.00;;;17.40
63220;BMP180;49320;52.512;13.448;2024-03-02T00:23:16;100126.00;;;17.40
63220;BMP180;49320;52.512;13.448;2024-03-02T00:25:49;100124.00;;;17.40
63220;BMP180;49320;52.512;13.448;2024-03-02T00:28:25;100122.00;;;17.40
63220;BMP180;49320;52.512;13.448;2024-03-02T00:31:10;100118.00;;;17.40
63220;BMP180;49320;52.512;13.448;2024-03-02T00:33:47;100128.00;;;17.40
63220;BMP180;49320;52.512;13.448;2024-03-02T00:36:16;100120.00;;;17.40
63220;BMP180;49320;52.512;13.448;2024-03-02T00:38:49;100126.00;;;17.40
63220;BMP180;49320;52.512;13.448;2024-03-02T00:41:24;100116.00;;;17.40
63220;BMP180;49320;52.512;13.448;2024-03-02T00:44:00;100111.00;;;17.40
63220;BMP180;49320;52.512;13.448;2024-03-02T00:46:33;100113.00;;;17.40
63220;BMP180;49320;52.512;13.448;2024-03-02T00:51:34;100111.00;;;17.50
63220;BMP180;49320;52.512;13.448;2024-03-02T00:54:04;100116.00;;;17.50
63220;BMP180;49320;52.512;13.448;2024-03-02T00:56:33;100116.00;;;17.50
63220;BMP180;49320;52.512;13.448;2024-03-02T00:59:01;100115.00;;;17.50
63220;BMP180;49320;52.512;13.448;2024-03-02T01:01:29;100119.00;;;17.50
63220;BMP180;49320;52.512;13.448;2024-03-02T01:03:56;100111.00;;;17.50
63220;BMP180;49320;52.512;13.448;2024-03-02T01:06:23;100124.00;;;17.50
63220;BMP180;49320;52.512;13.448;2024-03-02T01:08:50;100118.00;;;17.50
63220;BMP180;49320;52.512;13.448;2024-03-02T01:11:20;100119.00;;;17.50
63220;BMP180;49320;52.512;13.448;2024-03-02T01:13:50;100113.00;;;17.50
63220;BMP180;49320;52.512;13.448;2024-03-02T01:16:18;100104.00;;;17.60
63220;BMP180;49320;52.512;13.448;2024-03-02T01:18:45;100092.00;;;17.60
63220;BMP180;49320;52.512;13.448;2024-03-02T01:21:12;100103.00;;;17.60
63220;BMP180;49320;52.512;13.448;2024-03-02T01:23:39;100111.00;;;17.60
63220;BMP180;49320;52.512;13.448;2024-03-02T01:26:06;100109.00;;;17.70
63220;BMP180;49320;52.512;13.448;2024-03-02T01:28:33;100102.00;;;17.70
63220;BMP180;49320;52.512;13.448;2024-03-02T01:31:01;100100.00;;;17.70
63220;BMP180;49320;52.512;13.448;2024-03-02T01:33:29;100103.00;;;17.70
63220;BMP180;49320;52.512;13.448;2024-03-02T01:35:55;100099.00;;;17.70
63220;BMP180;49320;52.512;13.448;2024-03-02T01:38:22;100100.00;;;17.70
63220;BMP180;49320;52.512;13.448;2024-03-02T01:40:49;100103.00;;;17.70
63220;BMP180;49320;52.512;13.448;2024-03-02T01:43:16;100099.00;;;17.70
63220;BMP180;49320;52.512;13.448;2024-03-02T01:45:43;100095.00;;;17.80
63220;BMP180;49320;52.512;13.448;2024-03-02T01:48:10;100079.00;;;17.80
63220;BMP180;49320;52.512;13.448;2024-03-02T01:50:37;100082.00;;;17.80
63220;BMP180;49320;52.512;13.448;2024-03-02T01:53:04;100078.00;;;17.70
63220;BMP180;49320;52.512;13.448;2024-03-02T01:55:31;100084.00;;;17.70
63220;BMP180;49320;52.512;13.448;2024-03-02T01:57:58;100078.00;;;17.80
63220;BMP180;49320;52.512;13.448;2024-03-02T02:00:25;100076.00;;;17.70
63220;BMP180;49320;52.512;13.448;2024-03-02T02:02:54;100073.00;;;17.70
63220;BMP180;49320;52.512;13.448;2024-03-02T02:05:21;100064.00;;;17.70
63220;BMP180;49320;52.512;13.448;2024-03-02T02:07:48;100061.00;;;17.80
63220;BMP180;49320;52.512;13.448;2024-03-02T02:10:15;100059.00;;;17.80
63220;BMP180;49320;52.512;13.448;2024-03-02T02:12:42;100056.00;;;17.80
63220;BMP180;49320;52.512;13.448;2024-03-02T02:15:27;100041.00;;;17.80
63220;BMP180;49320;52.512;13.448;2024-03-02T02:17:56;100058.00;;;17.80
63220;BMP180;49320;52.512;13.448;2024-03-02T02:20:23;100057.00;;;17.70
63220;BMP180;49320;52.512;13.448;2024-03-02T02:23:02;100061.00;;;17.80
63220;BMP180;49320;52.512;13.448;2024-03-02T02:25:29;100060.00;;;17.70
63220;BMP180;49320;52.512;13.448;2024-03-02T02:27:57;100054.00;;;17.70
63220;BMP180;49320;52.512;13.448;2024-03-02T02:30:29;100049.00;;;17.70
63220;BMP180;49320;52.512;13.448;2024-03-02T02:32:57;100050.00;;;17.70
63220;BMP180;49320;52.512;13.448;2024-03-02T02:35:25;100056.00;;;17.70
63220;BMP180;49320;52.512;13.448;2024-03-02T02:37:54;100057.00;;;17.70
63220;BMP180;49320;52.512;13.448;2024-03-02T02:40:22;100064.00;;;17.60
63220;BMP180;49320;52.512;13.448;2024-03-02T02:42:49;100069.00;;;17.60
63220;BMP180;49320;52.512;13.448;2024-03-02T02:45:16;100065.00;;;17.60
63220;BMP180;49320;52.512;13.448;2024-03-02T02:47:44;100066.00;;;17.60
63220;BMP180;49320;52.512;13.448;2024-03-02T02:50:12;100049.00;;;17.60
63220;BMP180;49320;52.512;13.448;2024-03-02T02:52:41;100055.00;;;17.60
63220;BMP180;49320;52.512;13.448;2024-03-02T02:55:13;100069.00;;;17.60
63220;BMP180;49320;52.512;13.448;2024-03-02T02:57:41;100070.00;;;17.60
63220;BMP180;49320;52.512;13.448;2024-03-02T03:00:13;100064.00;;;17.60
63220;BMP180;49320;52.512;13.448;2024-03-02T03:02:47;100054.00;;;17.50
63220;BMP180;49320;52.512;13.448;2024-03-02T03:05:16;100075.00;;;17.50
63220;BMP180;49320;52.512;13.448;2024-03-02T03:07:43;100078.00;;;17.50
63220;BMP180;49320;52.512;13.448;2024-03-02T03:10:11;100058.00;;;17.50
63220;BMP180;49320;52.512;13.448;2024-03-02T03:12:38;100065.00;;;17.50
63220;BMP180;49320;52.512;13.448;2024-03-02T03:15:08;100069.00;;;17.50
63220;BMP180;49320;52.512;13.448;2024-03-02T03:17:36;100067.00;;;17.50
63220;BMP180;49320;52.512;13.448;2024-03-02T03:20:04;100059.00;;;17.50
63220;BMP180;49320;52.512;13.448;2024-03-02T03:22:32;100066.00;;;17.50
63220;BMP180;49320;52.512;13.448;2024-03-02T03:24:59;100070.00;;;17.50
63220;BMP180;49320;52.512;13.448;2024-03-02T03:27:27;100068.00;;;17.50
63220;BMP180;49320;52.512;13.448;2024-03-02T03:29:54;100055.00;;;17.50
63220;BMP180;49320;52.512;13.448;2024-03-02T03:32:21;100057.00;;;17.50
63220;BMP180;49320;52.512;13.448;2024-03-02T03:34:49;100055.00;;;17.50
63220;BMP180;49320;52.512;13.448;2024-03-02T03:37:16;100059.00;;;17.50
63220;BMP180;49320;52.512;13.448;2024-03-02T03:39:43;100062.00;;;17.50
63220;BMP180;49320;52.512;13.448;2024-03-02T03:42:10;100056.00;;;17.50
63220;BMP180;49320;52.512;13.448;2024-03-02T03:44:37;100063.00;;;17.50
63220;BMP180;49320;52.512;13.448;2024-03-02T03:47:03;100049.00;;;17.50
63220;BMP180;49320;52.512;13.448;2024-03-02T03:49:30;100051.00;;;17.50
63220;BMP180;49320;52.512;13.448;2024-03-02T03:51:57;100056.00;;;17.60
63220;BMP180;49320;52.512;13.448;2024-03-02T03:54:24;100055.00;;;17.60
63220;BMP180;49320;52.512;13.448;2024-03-02T03:56:51;100045.00;;;17.60
63220;BMP180;49320;52.512;13.448;2024-03-02T03:59:18;100065.00;;;17.60
63220;BMP180;49320;52.512;13.448;2024-03-02T04:01:44;100065.00;;;17.60
63220;BMP180;49320;52.512;13.448;2024-03-02T04:04:11;100070.00;;;17.60
63220;BMP180;49320;52.512;13.448;2024-03-02T04:06:38;100055.00;;;17.60
63220;BMP180;49320;52.512;13.448;2024-03-02T04:09:05;100060.00;;;17.60
63220;BMP180;49320;52.512;13.448;2024-03-02T04:11:32;100069.00;;;17.60
63220;BMP180;49320;52.512;13.448;2024-03-02T04:13:58;100076.00;;;17.60
63220;BMP180;49320;52.512;13.448;2024-03-02T04:16:25;100076.00;;;17.60
63220;BMP180;49320;52.512;13.448;2024-03-02T04:18:52;100065.00;;;17.60
63220;BMP180;49320;52.512;13.448;2024-03-02T04:21:19;100069.00;;;17.60
63220;BMP180;49320;52.512;13.448;2024-03-02T04:23:46;100062.00;;;17.60
63220;BMP180;49320;52.512;13.448;2024-03-02T04:26:13;100070.00;;;17.60
63220;BMP180;49320;52.512;13.448;2024-03-02T04:28:41;100076.00;;;17.60
63220;BMP180;49320;52.512;13.448;2024-03-02T04:31:08;100068.00;;;17.60
63220;BMP180;49320;52.512;13.448;2024-03-02T04:33:35;100074.00;;;17.60
63220;BMP180;49320;52.512;13.448;2024-03-02T04:36:02;100073.00;;;17.60
63220;BMP180;49320;52.512;13.448;2024-03-02T04:38:28;100066.00;;;17.60
63220;BMP180;49320;52.512;13.448;2024-03-02T04:40:57;100078.00;;;17.60
63220;BMP180;49320;52.512;13.448;2024-03-02T04:43:24;100079.00;;;17.60
63220;BMP180;49320;52.512;13.448;2024-03-02T04:45:51;100076.00;;;17.60
63220;BMP180;49320;52.512;13.448;2024-03-02T04:48:17;100085.00;;;17.60
63220;BMP180;49320;52.512;13.448;2024-03-02T04:50:45;100091.00;;;17.60
63220;BMP180;49320;52.512;13.448;2024-03-02T04:53:12;100092.00;;;17.70
63220;BMP180;49320;52.512;13.448;2024-03-02T04:55:39;100091.00;;;17.70
63220;BMP180;49320;52.512;13.448;2024-03-02T04:58:06;100100.00;;;17.70
63220;BMP180;49320;52.512;13.448;2024-03-02T05:00:34;100102.00;;;17.70
63220;BMP180;49320;52.512;13.448;2024-03-02T05:03:02;100113.00;;;17.70
63220;BMP180;49320;52.512;13.448;2024-03-02T05:05:29;100101.00;;;17.70
63220;BMP180;49320;52.512;13.448;2024-03-02T05:07:56;100106.00;;;17.70
63220;BMP180;49320;52.512;13.448;2024-03-02T05:10:23;100109.00;;;17.70
63220;BMP180;49320;52.512;13.448;2024-03-02T05:12:51;100107.00;;;17.70
63220;BMP180;49320;52.512;13.448;2024-03-02T05:15:24;100100.00;;;17.70
63220;BMP180;49320;52.512;13.448;2024-03-02T05:17:51;100106.00;;;17.70
63220;BMP180;49320;52.512;13.448;2024-03-02T05:20:18;100113.00;;;17.70
63220;BMP180;49320;52.512;13.448;2024-03-02T05:22:45;100125.00;;;17.70
63220;BMP180;49320;52.512;13.448;2024-03-02T05:25:13;100122.00;;;17.70
63220;BMP180;49320;52.512;13.448;2024-03-02T05:27:41;100126.00;;;17.70
63220;BMP180;49320;52.512;13.448;2024-03-02T05:30:09;100128.00;;;17.70
63220;BMP180;49320;52.512;13.448;2024-03-02T05:32:36;100135.00;;;17.70
63220;BMP180;49320;52.512;13.448;2024-03-02T05:35:03;100136.00;;;17.70
63220;BMP180;49320;52.512;13.448;2024-03-02T05:37:31;100135.00;;;17.70
63220;BMP180;49320;52.512;13.448;2024-03-02T05:39:58;100141.00;;;17.70
63220;BMP180;49320;52.512;13.448;2024-03-02T05:42:26;100133.00;;;17.70
63220;BMP180;49320;52.512;13.448;2024-03-02T05:44:54;100136.00;;;17.70
63220;BMP180;49320;52.512;13.448;2024-03-02T05:47:21;100130.00;;;17.70
63220;BMP180;49320;52.512;13.448;2024-03-02T05:49:48;100144.00;;;17.70
63220;BMP180;49320;52.512;13.448;2024-03-02T05:52:15;100143.00;;;17.70
63220;BMP180;49320;52.512;13.448;2024-03-02T05:54:41;100160.00;;;17.70
63220;BMP180;49320;52.512;13.448;2024-03-02T05:57:08;100153.00;;;17.80
63220;BMP180;49320;52.512;13.448;2024-03-02T05:59:53;100149.00;;;17.80
63220;BMP180;49320;52.512;13.448;2024-03-02T06:02:20;100150.00;;;17.80
63220;BMP180;49320;52.512;13.448;2024-03-02T06:04:47;100151.00;;;17.80
63220;BMP180;49320;52.512;13.448;2024-03-02T06:07:14;100157.00;;;17.80
63220;BMP180;49320;52.512;13.448;2024-03-02T06:09:41;100154.00;;;17.80
63220;BMP180;49320;52.512;13.448;2024-03-02T06:12:08;100164.00;;;17.80
63220;BMP180;49320;52.512;13.448;2024-03-02T06:14:35;100155.00;;;17.80
63220;BMP180;49320;52.512;13.448;2024-03-02T06:17:02;100164.00;;;17.80
63220;BMP180;49320;52.512;13.448;2024-03-02T06:19:29;100155.00;;;17.80
63220;BMP180;49320;52.512;13.448;2024-03-02T06:21:56;100153.00;;;17.80
63220;BMP180;49320;52.512;13.448;2024-03-02T06:24:23;100150.00;;;17.80
63220;BMP180;49320;52.512;13.448;2024-03-02T06:26:49;100153.00;;;17.80
63220;BMP180;49320;52.512;13.448;2024-03-02T06:29:16;100157.00;;;17.80
63220;BMP180;49320;52.512;13.448;2024-03-02T06:31:43;100155.00;;;17.80
63220;BMP180;49320;52.512;13.448;2024-03-02T06:34:10;100160.00;;;17.80
63220;BMP180;49320;52.512;13.448;2024-03-02T06:36:38;100156.00;;;17.80
63220;BMP180;49320;52.512;13.448;2024-03-02T06:39:06;100150.00;;;17.80
63220;BMP180;49320;52.512;13.448;2024-03-02T06:41:34;100167.00;;;17.80
63220;BMP180;49320;52.512;13.448;2024-03-02T06:44:00;100163.00;;;17.90
63220;BMP180;49320;52.512;13.448;2024-03-02T06:46:27;100168.00;;;17.90
63220;BMP180;49320;52.512;13.448;2024-03-02T06:48:54;100166.00;;;17.90
63220;BMP180;49320;52.512;13.448;2024-03-02T06:51:21;100168.00;;;17.90
63220;BMP180;49320;52.512;13.448;2024-03-02T06:53:48;100173.00;;;17.90
63220;BMP180;49320;52.512;13.448;2024-03-02T06:56:15;100174.00;;;17.90
63220;BMP180;49320;52.512;13.448;2024-03-02T06:58:42;100173.00;;;17.90
63220;BMP180;49320;52.512;13.448;2024-03-02T07:01:09;100176.00;;;17.90
63220;BMP180;49320;52.512;13.448;2024-03-02T07:03:36;100184.00;;;17.90
63220;BMP180;49320;52.512;13.448;2024-03-02T07:06:04;100191.00;;;17.90
63220;BMP180;49320;52.512;13.448;2024-03-02T07:08:31;100183.00;;;17.90
63220;BMP180;49320;52.512;13.448;2024-03-02T07:10:58;100184.00;;;17.90
63220;BMP180;49320;52.512;13.448;2024-03-02T07:13:24;100183.00;;;17.90
63220;BMP180;49320;52.512;13.448;2024-03-02T07:15:51;100183.00;;;17.90
63220;BMP180;49320;52.512;13.448;2024-03-02T07:18:31;100194.00;;;17.90
63220;BMP180;49320;52.512;13.448;2024-03-02T07:20:58;100190.00;;;17.90
63220;BMP180;49320;52.512;13.448;2024-03-02T07:23:26;100189.00;;;17.90
63220;BMP180;49320;52.512;13.448;2024-03-02T07:25:54;100190.00;;;17.90
63220;BMP180;49320;52.512;13.448;2024-03-02T07:28:26;100193.00;;;18.00
63220;BMP180;49320;52.512;13.448;2024-03-02T07:31:04;100194.00;;;18.00
63220;BMP180;49320;52.512;13.448;2024-03-02T07:33:31;100191.00;;;17.90
63220;BMP180;49320;52.512;13.448;2024-03-02T07:35:59;100200.00;;;17.90
63220;BMP180;49320;52.512;13.448;2024-03-02T07:38:31;100201.00;;;17.90
63220;BMP180;49320;52.512;13.448;2024-03-02T07:40:59;100216.00;;;17.90
63220;BMP180;49320;52.512;13.448;2024-03-02T07:43:27;100228.00;;;17.90
63220;BMP180;49320;52.512;13.448;2024-03-02T07:45:54;100224.00;;;17.90
63220;BMP180;49320;52.512;13.448;2024-03-02T07:48:21;100233.00;;;17.90
63220;BMP180;49320;52.512;13.448;2024-03-02T07:50:48;100243.00;;;17.90
63220;BMP180;49320;52.512;13.448;2024-03-02T07:53:14;100238.00;;;17.80
63220;BMP180;49320;52.512;13.448;2024-03-02T07:55:42;100245.00;;;17.80
63220;BMP180;49320;52.512;13.448;2024-03-02T07:58:09;100242.00;;;17.90
63220;BMP180;49320;52.512;13.448;2024-03-02T08:00:39;100251.00;;;17.80
63220;BMP180;49320;52.512;13.448;2024-03-02T08:03:07;100238.00;;;17.90
63220;BMP180;49320;52.512;13.448;2024-03-02T08:05:38;100245.00;;;17.90
63220;BMP180;49320;52.512;13.448;2024-03-02T08:08:05;100253.00;;;17.90
63220;BMP180;49320;52.512;13.448;2024-03-02T08:10:32;100253.00;;;17.90
63220;BMP180;49320;52.512;13.448;2024-03-02T08:13:00;100255.00;;;18.00
63220;BMP180;49320;52.512;13.448;2024-03-02T08:15:27;100256.00;;;18.00
63220;BMP180;49320;52.512;13.448;2024-03-02T08:17:54;100263.00;;;18.00
63220;BMP180;49320;52.512;13.448;2024-03-02T08:20:21;100272.00;;;18.00
63220;BMP180;49320;52.512;13.448;2024-03-02T08:22:47;100271.00;;;18.00
63220;BMP180;49320;52.512;13.448;2024-03-02T08:25:14;100259.00;;;18.00
63220;BMP180;49320;52.512;13.448;2024-03-02T08:27:42;100257.00;;;18.00
63220;BMP180;49320;52.512;13.448;2024-03-02T08:30:10;100273.00;;;18.00
63220;BMP180;49320;52.512;13.448;2024-03-02T08:32:37;100278.00;;;18.00
63220;BMP180;49320;52.512;13.448;2024-03-02T08:35:05;100277.00;;;18.00
63220;BMP180;49320;52.512;13.448;2024-03-02T08:37:32;100275.00;;;18.00
63220;BMP180;49320;52.512;13.448;2024-03-02T08:39:59;100267.00;;;18.00
63220;BMP180;49320;52.512;13.448;2024-03-02T08:42:26;100260.00;;;18.00
63220;BMP180;49320;52.512;13.448;2024-03-02T08:44:53;100273.00;;;18.00
63220;BMP180;49320;52.512;13.448;2024-03-02T08:47:20;100271.00;;;18.00
63220;BMP180;49320;52.512;13.448;2024-03-02T08:49:47;100262.00;;;18.10
63220;BMP180;49320;52.512;13.448;2024-03-02T08:52:14;100264.00;;;18.10
63220;BMP180;49320;52.512;13.448;2024-03-02T08:54:40;100269.00;;;18.10
63220;BMP180;49320;52.512;13.448;2024-03-02T08:57:07;100280.00;;;18.20
63220;BMP180;49320;52.512;13.448;2024-03-02T08:59:34;100271.00;;;18.10
63220;BMP180;49320;52.512;13.448;2024-03-02T09:02:03;100275.00;;;18.20
63220;BMP180;49320;52.512;13.448;2024-03-02T09:04:30;100281.00;;;18.20
63220;BMP180;49320;52.512;13.448;2024-03-02T09:07:01;100275.00;;;18.20
63220;BMP180;49320;52.512;13.448;2024-03-02T09:09:28;100286.00;;;18.30
63220;BMP180;49320;52.512;13.448;2024-03-02T09:11:55;100292.00;;;18.20
63220;BMP180;49320;52.512;13.448;2024-03-02T09:14:24;100297.00;;;18.30
63220;BMP180;49320;52.512;13.448;2024-03-02T09:16:51;100290.00;;;18.30
63220;BMP180;49320;52.512;13.448;2024-03-02T09:19:18;100304.00;;;18.30
63220;BMP180;49320;52.512;13.448;2024-03-02T09:21:45;100303.00;;;18.30
63220;BMP180;49320;52.512;13.448;2024-03-02T09:24:12;100298.00;;;18.40
63220;BMP180;49320;52.512;13.448;2024-03-02T09:26:43;100298.00;;;18.40
63220;BMP180;49320;52.512;13.448;2024-03-02T09:29:10;100298.00;;;18.40
63220;BMP180;49320;52.512;13.448;2024-03-02T09:31:43;100288.00;;;18.50
63220;BMP180;49320;52.512;13.448;2024-03-02T09:34:09;100296.00;;;18.60
63220;BMP180;49320;52.512;13.448;2024-03-02T09:36:36;100295.00;;;18.70
63220;BMP180;49320;52.512;13.448;2024-03-02T09:39:03;100297.00;;;18.70
63220;BMP180;49320;52.512;13.448;2024-03-02T09:41:33;100292.00;;;18.80
63220;BMP180;49320;52.512;13.448;2024-03-02T09:44:00;100291.00;;;18.90
63220;BMP180;49320;52.512;13.448;2024-03-02T09:46:27;100296.00;;;19.00
63220;BMP180;49320;52.512;13.448;2024-03-02T09:48:54;100290.00;;;19.10
63220;BMP180;49320;52.512;13.448;2024-03-02T09:51:22;100295.00;;;19.10
63220;BMP180;49320;52.512;13.448;2024-03-02T09:53:50;100296.00;;;19.20
63220;BMP180;49320;52.512;13.448;2024-03-02T09:56:17;100285.00;;;19.30
63220;BMP180;49320;52.512;13.448;2024-03-02T09:58:45;100296.00;;;19.40
63220;BMP180;49320;52.512;13.448;2024-03-02T10:01:11;100293.00;;;19.40
63220;BMP180;49320;52.512;13.448;2024-03-02T10:03:39;100284.00;;;19.50
63220;BMP180;49320;52.512;13.448;2024-03-02T10:06:26;100299.00;;;19.60
63220;BMP180;49320;52.512;13.448;2024-03-02T10:08:55;100296.00;;;19.70
63220;BMP180;49320;52.512;13.448;2024-03-02T10:14:11;100303.00;;;19.90
63220;BMP180;49320;52.512;13.448;2024-03-02T10:16:42;100306.00;;;19.90
63220;BMP180;49320;52.512;13.448;2024-03-02T10:19:20;100301.00;;;20.00
63220;BMP180;49320;52.512;13.448;2024-03-02T10:21:53;100308.00;;;20.00
63220;BMP180;49320;52.512;13.448;2024-03-02T10:24:22;100308.00;;;20.10
63220;BMP180;49320;52.512;13.448;2024-03-02T10:26:50;100306.00;;;20.10
63220;BMP180;49320;52.512;13.448;2024-03-02T10:29:17;100294.00;;;20.20
63220;BMP180;49320;52.512;13.448;2024-03-02T10:31:46;100296.00;;;20.20
63220;BMP180;49320;52.512;13.448;2024-03-02T10:34:13;100293.00;;;20.20
63220;BMP180;49320;52.512;13.448;2024-03-02T10:36:42;100294.00;;;20.30
63220;BMP180;49320;52.512;13.448;2024-03-02T10:39:10;100294.00;;;20.40
63220;BMP180;49320;52.512;13.448;2024-03-02T10:41:38;100295.00;;;20.50
63220;BMP180;49320;52.512;13.448;2024-03-02T10:44:07;100292.00;;;20.50
63220;BMP180;49320;52.512;13.448;2024-03-02T10:46:37;100296.00;;;20.60
63220;BMP180;49320;52.512;13.448;2024-03-02T10:49:05;100292.00;;;20.70
63220;BMP180;49320;52.512;13.448;2024-03-02T10:51:35;100297.00;;;20.70
63220;BMP180;49320;52.512;13.448;2024-03-02T10:54:04;100289.00;;;20.80
63220;BMP180;49320;52.512;13.448;2024-03-02T10:56:39;100300.00;;;20.80
63220;BMP180;49320;52.512;13.448;2024-03-02T10:59:27;100300.00;;;20.90
63220;BMP180;49320;52.512;13.448;2024-03-02T11:01:59;100298.00;;;20.90
63220;BMP180;49320;52.512;13.448;2024-03-02T11:04:31;100286.00;;;21.00
63220;BMP180;49320;52.512;13.448;2024-03-02T11:07:08;100283.00;;;21.10
63220;BMP180;49320;52.512;13.448;2024-03-02T11:09:45;100292.00;;;21.10
63220;BMP180;49320;52.512;13.448;2024-03-02T11:12:23;100290.00;;;21.10
63220;BMP180;49320;52.512;13.448;2024-03-02T11:14:56;100288.00;;;21.10
63220;BMP180;49320;52.512;13.448;2024-03-02T11:17:24;100281.00;;;21.10
63220;BMP180;49320;52.512;13.448;2024-03-02T11:19:52;100287.00;;;21.10
63220;BMP180;49320;52.512;13.448;2024-03-02T11:22:20;100281.00;;;21.10
63220;BMP180;49320;52.512;13.448;2024-03-02T11:24:52;100285.00;;;21.20
63220;BMP180;49320;52.512;13.448;2024-03-02T11:33:06;100288.00;;;21.40
63220;BMP180;49320;52.512;13.448;2024-03-02T11:35:36;100289.00;;;21.50
63220;BMP180;49320;52.512;13.448;2024-03-02T11:38:04;100300.00;;;21.60
63220;BMP180;49320;52.512;13.448;2024-03-02T11:40:33;100292.00;;;21.60
63220;BMP180;49320;52.512;13.448;2024-03-02T11:43:00;100292.00;;;21.70
63220;BMP180;49320;52.512;13.448;2024-03-02T11:45:28;100290.00;;;21.70
63220;BMP180;49320;52.512;13.448;2024-03-02T11:47:57;100285.00;;;21.70
63220;BMP180;49320;52.512;13.448;2024-03-02T11:50:47;100288.00;;;21.80
63220;BMP180;49320;52.512;13.448;2024-03-02T11:53:17;100288.00;;;21.80
63220;BMP180;49320;52.512;13.448;2024-03-02T11:55:45;100293.00;;;21.80
63220;BMP180;49320;52.512;13.448;2024-03-02T11:58:15;100291.00;;;21.90
63220;BMP180;49320;52.512;13.448;2024-03-02T12:00:50;100287.00;;;22.00
63220;BMP180;49320;52.512;13.448;2024-03-02T12:03:17;100292.00;;;22.00
63220;BMP180;49320;52.512;13.448;2024-03-02T12:05:49;100295.00;;;22.10
63220;BMP180;49320;52.512;13.448;2024-03-02T12:08:17;100291.00;;;22.10
63220;BMP180;49320;52.512;13.448;2024-03-02T12:11:00;100291.00;;;22.30
63220;BMP180;49320;52.512;13.448;2024-03-02T12:13:30;100282.00;;;22.30
63220;BMP180;49320;52.512;13.448;2024-03-02T12:15:57;100287.00;;;22.30
63220;BMP180;49320;52.512;13.448;2024-03-02T12:18:25;100285.00;;;22.40
63220;BMP180;49320;52.512;13.448;2024-03-02T12:20:52;100288.00;;;22.40
63220;BMP180;49320;52.512;13.448;2024-03-02T12:23:23;100279.00;;;22.40
63220;BMP180;49320;52.512;13.448;2024-03-02T12:25:50;100274.00;;;22.40
63220;BMP180;49320;52.512;13.448;2024-03-02T12:28:17;100276.00;;;22.40
63220;BMP180;49320;52.512;13.448;2024-03-02T12:30:44;100277.00;;;22.50
63220;BMP180;49320;52.512;13.448;2024-03-02T12:33:11;100277.00;;;22.60
63220;BMP180;49320;52.512;13.448;2024-03-02T12:35:40;100268.00;;;22.70
63220;BMP180;49320;52.512;13.448;2024-03-02T12:38:07;100272.00;;;22.70
63220;BMP180;49320;52.512;13.448;2024-03-02T12:40:34;100273.00;;;22.80
63220;BMP180;49320;52.512;13.448;2024-03-02T12:43:01;100279.00;;;22.80
63220;BMP180;49320;52.512;13.448;2024-03-02T12:45:28;100271.00;;;22.80
63220;BMP180;49320;52.512;13.448;2024-03-02T12:47:55;100268.00;;;22.90
63220;BMP180;49320;52.512;13.448;2024-03-02T12:50:22;100253.00;;;23.00
63220;BMP180;49320;52.512;13.448;2024-03-02T12:52:53;100277.00;;;23.00
63220;BMP180;49320;52.512;13.448;2024-03-02T12:55:22;100275.00;;;23.10
63220;BMP180;49320;52.512;13.448;2024-03-02T12:57:52;100276.00;;;23.10
63220;BMP180;49320;52.512;13.448;2024-03-02T13:00:21;100272.00;;;23.10
63220;BMP180;49320;52.512;13.448;2024-03-02T13:02:50;100271.00;;;23.20
63220;BMP180;49320;52.512;13.448;2024-03-02T13:05:19;100267.00;;;23.20
63220;BMP180;49320;52.512;13.448;2024-03-02T13:07:50;100263.00;;;23.30
63220;BMP180;49320;52.512;13.448;2024-03-02T13:10:17;100270.00;;;23.40
63220;BMP180;49320;52.512;13.448;2024-03-02T13:12:45;100266.00;;;23.40
63220;BMP180;49320;52.512;13.448;2024-03-02T13:15:13;100265.00;;;23.50
63220;BMP180;49320;52.512;13.448;2024-03-02T13:17:45;100259.00;;;23.50
63220;BMP180;49320;52.512;13.448;2024-03-02T13:20:15;100260.00;;;23.50
63220;BMP180;49320;52.512;13.448;2024-03-02T13:22:44;100262.00;;;23.50
63220;BMP180;49320;52.512;13.448;2024-03-02T13:25:11;100262.00;;;23.50
63220;BMP180;49320;52.512;13.448;2024-03-02T13:27:39;100260.00;;;23.50
63220;BMP180;49320;52.512;13.448;2024-03-02T13:30:07;100268.00;;;23.50
63220;BMP180;49320;52.512;13.448;2024-03-02T13:32:36;100260.00;;;23.50
63220;BMP180;49320;52.512;13.448;2024-03-02T13:35:03;100259.00;;;23.40
63220;BMP180;49320;52.512;13.448;2024-03-02T13:37:30;100255.00;;;23.40
63220;BMP180;49320;52.512;13.448;2024-03-02T13:39:57;100258.00;;;23.40
63220;BMP180;49320;52.512;13.448;2024-03-02T13:42:24;100259.00;;;23.30
63220;BMP180;49320;52.512;13.448;2024-03-02T13:44:51;100257.00;;;23.30
63220;BMP180;49320;52.512;13.448;2024-03-02T13:47:19;100242.00;;;23.30
63220;BMP180;49320;52.512;13.448;2024-03-02T13:49:45;100253.00;;;23.30
63220;BMP180;49320;52.512;13.448;2024-03-02T13:52:14;100253.00;;;23.30
63220;BMP180;49320;52.512;13.448;2024-03-02T13:54:43;100249.00;;;23.30
63220;BMP180;49320;52.512;13.448;2024-03-02T13:57:11;100253.00;;;23.30
63220;BMP180;49320;52.512;13.448;2024-03-02T13:59:40;100253.00;;;23.30
63220;BMP180;49320;52.512;13.448;2024-03-02T14:02:07;100262.00;;;23.40